createdAt,value
2023-04-27T00:00:22.942Z,23.10
2023-04-27T00:03:13.779Z,21.70
2023-04-27T00:05:42.525Z,26.50
2023-04-27T00:08:10.668Z,22.70
2023-04-27T00:10:38.696Z,23.00
2023-04-27T00:13:06.990Z,17.90
2023-04-27T00:15:34.972Z,26.60
2023-04-27T00:18:02.874Z,23.50
2023-04-27T00:20:30.627Z,27.90
2023-04-27T00:22:58.415Z,18.60
2023-04-27T00:25:27.241Z,22.60
2023-04-27T00:27:55.152Z,26.00
2023-04-27T00:30:23.043Z,21.00
2023-04-27T00:32:50.971Z,69.20
2023-04-27T00:35:22.939Z,20.30
2023-04-27T00:37:50.859Z,23.20
2023-04-27T00:40:20.935Z,23.30
2023-04-27T00:42:48.673Z,15.80
2023-04-27T00:45:16.678Z,38.50
2023-04-27T00:47:45.891Z,29.90
2023-04-27T00:50:14.892Z,33.70
2023-04-27T00:52:43.760Z,21.60
2023-04-27T00:55:11.753Z,26.90
2023-04-27T00:57:41.323Z,24.80
2023-04-27T01:00:10.981Z,26.10
2023-04-27T01:02:40.271Z,19.30
2023-04-27T01:05:09.488Z,25.90
2023-04-27T01:07:43.543Z,29.80
2023-04-27T01:10:11.633Z,24.50
2023-04-27T01:12:39.714Z,25.10
2023-04-27T01:15:08.947Z,24.90
2023-04-27T01:17:37.551Z,20.10
2023-04-27T01:20:07.721Z,25.40
2023-04-27T01:22:37.574Z,30.60
2023-04-27T01:25:06.769Z,24.50
2023-04-27T01:27:34.702Z,27.50
2023-04-27T01:30:03.617Z,20.70
2023-04-27T01:32:32.049Z,19.90
2023-04-27T01:35:00.150Z,27.20
2023-04-27T01:37:28.032Z,28.30
2023-04-27T01:39:55.971Z,27.20
2023-04-27T01:42:24.993Z,28.60
2023-04-27T01:44:52.753Z,31.00
2023-04-27T01:47:24.937Z,22.10
2023-04-27T01:49:52.857Z,23.50
2023-04-27T01:52:20.940Z,26.30
2023-04-27T01:54:48.720Z,22.70
2023-04-27T01:57:17.684Z,21.30
2023-04-27T01:59:45.744Z,18.40
2023-04-27T02:02:13.693Z,25.70
2023-04-27T02:04:43.432Z,25.20
2023-04-27T02:07:18.365Z,27.40
2023-04-27T02:09:46.466Z,21.70
2023-04-27T02:12:15.087Z,30.10
2023-04-27T02:14:42.969Z,36.60
2023-04-27T02:17:10.798Z,32.20
2023-04-27T02:19:38.702Z,28.10
2023-04-27T02:22:07.156Z,26.80
2023-04-27T02:24:35.840Z,20.30
2023-04-27T02:27:03.764Z,22.10
2023-04-27T02:29:36.081Z,19.20
2023-04-27T02:32:07.896Z,23.40
2023-04-27T02:34:35.712Z,20.30
2023-04-27T02:37:04.078Z,20.50
2023-04-27T02:39:32.056Z,28.60
2023-04-27T02:41:59.942Z,18.10
2023-04-27T02:44:27.764Z,18.80
2023-04-27T02:46:55.628Z,24.30
2023-04-27T02:49:23.574Z,29.00
2023-04-27T02:51:51.463Z,24.10
2023-04-27T02:54:19.471Z,19.70
2023-04-27T02:56:47.314Z,23.10
2023-04-27T02:59:21.339Z,32.40
2023-04-27T03:01:49.173Z,30.50
2023-04-27T03:04:18.276Z,25.50
2023-04-27T03:06:46.323Z,22.60
2023-04-27T03:09:18.364Z,25.00
2023-04-27T03:11:46.546Z,24.30
2023-04-27T03:14:14.840Z,26.60
2023-04-27T03:16:42.940Z,33.50
2023-04-27T03:19:11.989Z,31.20
2023-04-27T03:21:40.162Z,21.90
2023-04-27T03:24:08.038Z,36.80
2023-04-27T03:26:36.138Z,26.10
2023-04-27T03:29:05.283Z,30.00
2023-04-27T03:31:33.160Z,25.20
2023-04-27T03:34:00.960Z,20.50
2023-04-27T03:36:28.765Z,22.90
2023-04-27T03:38:56.628Z,29.30
2023-04-27T03:41:24.766Z,23.50
2023-04-27T03:43:53.651Z,28.80
2023-04-27T03:46:21.695Z,28.00
2023-04-27T03:48:49.840Z,23.40
2023-04-27T03:51:18.509Z,34.20
2023-04-27T03:53:47.207Z,21.60
2023-04-27T03:56:15.146Z,27.20
2023-04-27T03:58:43.157Z,20.50
2023-04-27T04:01:18.967Z,33.80
2023-04-27T04:03:53.662Z,27.70
2023-04-27T04:06:21.827Z,24.20
2023-04-27T04:08:49.540Z,32.80
2023-04-27T04:11:17.844Z,22.60
2023-04-27T04:13:46.128Z,26.50
2023-04-27T04:16:15.192Z,29.80
2023-04-27T04:18:43.044Z,26.40
2023-04-27T04:21:11.911Z,35.10
2023-04-27T04:23:43.101Z,25.30
2023-04-27T04:26:11.635Z,28.30
2023-04-27T04:28:39.528Z,33.90
2023-04-27T04:31:09.827Z,43.40
2023-04-27T04:33:37.914Z,28.50
2023-04-27T04:36:06.821Z,29.30
2023-04-27T04:38:34.799Z,28.30
2023-04-27T04:41:02.632Z,30.90
2023-04-27T04:43:32.958Z,30.90
2023-04-27T04:46:03.584Z,23.90
2023-04-27T04:48:32.486Z,29.30
2023-04-27T04:51:00.362Z,30.80
2023-04-27T04:53:28.927Z,27.10
2023-04-27T04:55:58.460Z,23.20
2023-04-27T04:58:27.554Z,31.20
2023-04-27T05:00:55.352Z,28.10
2023-04-27T05:03:23.521Z,25.40
2023-04-27T05:05:51.858Z,30.50
2023-04-27T05:08:19.865Z,22.10
2023-04-27T05:10:52.055Z,20.10
2023-04-27T05:13:40.868Z,22.00
2023-04-27T05:16:12.906Z,19.40
2023-04-27T05:18:41.736Z,25.40
2023-04-27T05:21:16.396Z,26.90
2023-04-27T05:23:44.296Z,37.00
2023-04-27T05:26:19.392Z,27.00
2023-04-27T05:28:47.260Z,30.20
2023-04-27T05:31:15.463Z,25.70
2023-04-27T05:33:45.067Z,16.40
2023-04-27T05:36:13.405Z,23.30
2023-04-27T05:38:41.683Z,18.40
2023-04-27T05:41:09.554Z,26.50
2023-04-27T05:43:38.897Z,16.00
2023-04-27T05:46:07.123Z,18.40
2023-04-27T05:48:35.708Z,21.20
2023-04-27T05:51:04.401Z,21.30
2023-04-27T05:53:34.971Z,21.50
2023-04-27T05:56:13.581Z,18.00
2023-04-27T05:58:42.302Z,30.30
2023-04-27T06:01:10.666Z,20.10
2023-04-27T06:03:39.655Z,23.70
2023-04-27T06:06:07.888Z,16.10
2023-04-27T06:08:37.447Z,17.10
2023-04-27T06:11:06.365Z,22.70
2023-04-27T06:13:40.635Z,23.10
2023-04-27T06:18:40.289Z,12.40
2023-04-27T06:21:08.462Z,14.50
2023-04-27T06:23:36.262Z,26.00
2023-04-27T06:26:04.116Z,15.30
2023-04-27T06:28:31.876Z,18.50
2023-04-27T06:30:59.925Z,16.70
2023-04-27T06:33:28.093Z,17.00
2023-04-27T06:35:56.065Z,20.80
2023-04-27T06:38:24.170Z,15.80
2023-04-27T06:40:53.355Z,18.40
2023-04-27T06:43:21.802Z,19.10
2023-04-27T06:45:49.664Z,14.40
2023-04-27T06:48:17.598Z,20.80
2023-04-27T06:50:45.525Z,20.00
2023-04-27T06:53:13.717Z,20.40
2023-04-27T06:55:45.042Z,15.40
2023-04-27T06:58:14.168Z,8.90
2023-04-27T07:00:41.981Z,12.60
2023-04-27T07:03:10.012Z,15.00
2023-04-27T07:05:38.217Z,12.60
2023-04-27T07:08:10.287Z,9.60
2023-04-27T07:10:38.223Z,11.00
2023-04-27T07:13:08.839Z,14.70
2023-04-27T07:15:37.681Z,13.60
2023-04-27T07:18:12.298Z,14.70
2023-04-27T07:20:41.618Z,17.20
2023-04-27T07:23:09.455Z,18.40
2023-04-27T07:25:37.253Z,13.50
2023-04-27T07:28:05.091Z,9.90
2023-04-27T07:30:36.277Z,8.50
2023-04-27T07:33:04.599Z,13.90
2023-04-27T07:35:32.490Z,13.90
2023-04-27T07:38:03.820Z,10.00
2023-04-27T07:40:32.798Z,12.00
2023-04-27T07:43:01.057Z,11.00
2023-04-27T07:45:33.929Z,15.30
2023-04-27T07:48:02.135Z,12.10
2023-04-27T07:50:31.730Z,9.90
2023-04-27T07:52:59.682Z,8.50
2023-04-27T07:55:27.575Z,12.30
2023-04-27T07:57:58.434Z,11.30
2023-04-27T08:00:26.806Z,8.20
2023-04-27T08:02:56.204Z,10.00
2023-04-27T08:05:24.777Z,10.50
2023-04-27T08:07:54.475Z,9.90
2023-04-27T08:10:23.504Z,14.30
2023-04-27T08:12:51.592Z,6.70
2023-04-27T08:15:20.231Z,6.90
2023-04-27T08:17:48.833Z,8.90
2023-04-27T08:20:23.439Z,18.00
2023-04-27T08:22:51.256Z,8.50
2023-04-27T08:25:19.245Z,4.40
2023-04-27T08:27:47.152Z,6.40
2023-04-27T08:30:15.108Z,5.30
2023-04-27T08:32:42.911Z,12.00
2023-04-27T08:35:11.626Z,6.00
2023-04-27T08:37:45.893Z,6.20
2023-04-27T08:40:14.146Z,7.60
2023-04-27T08:42:54.775Z,8.80
2023-04-27T08:45:24.342Z,12.90
2023-04-27T08:47:52.704Z,11.50
2023-04-27T08:50:21.717Z,9.90
2023-04-27T08:52:50.989Z,6.00
2023-04-27T08:55:19.156Z,9.10
2023-04-27T08:57:58.337Z,10.60
2023-04-27T09:00:27.120Z,12.40
2023-04-27T09:02:55.584Z,8.60
2023-04-27T09:05:23.732Z,6.50
2023-04-27T09:08:05.495Z,17.30
2023-04-27T09:10:47.986Z,8.90
2023-04-27T09:13:16.595Z,8.80
2023-04-27T09:15:48.966Z,5.60
2023-04-27T09:18:22.106Z,10.40
2023-04-27T09:20:51.679Z,8.20
2023-04-27T09:23:29.637Z,11.30
2023-04-27T09:26:00.493Z,5.40
2023-04-27T09:28:30.910Z,15.50
2023-04-27T09:31:00.728Z,8.80
2023-04-27T09:33:31.633Z,17.70
2023-04-27T09:36:06.803Z,6.60
2023-04-27T09:38:34.932Z,16.80
2023-04-27T09:41:03.499Z,9.50
2023-04-27T09:43:31.645Z,6.00
2023-04-27T09:45:59.682Z,11.60
2023-04-27T09:48:28.058Z,9.80
2023-04-27T09:50:55.851Z,9.20
2023-04-27T09:53:30.090Z,6.70
2023-04-27T09:56:34.884Z,7.40
2023-04-27T09:59:41.332Z,13.20
2023-04-27T10:02:24.828Z,7.60
2023-04-27T10:05:33.191Z,6.60
2023-04-27T10:08:02.494Z,5.90
2023-04-27T10:10:31.242Z,8.20
2023-04-27T10:13:02.050Z,4.00
2023-04-27T10:15:30.339Z,11.10
2023-04-27T10:18:04.851Z,6.40
2023-04-27T10:20:37.635Z,5.10
2023-04-27T10:23:05.678Z,8.70
2023-04-27T10:25:42.048Z,18.30
2023-04-27T10:28:21.944Z,11.90
2023-04-27T10:31:16.651Z,3.70
2023-04-27T10:33:51.335Z,6.30
2023-04-27T10:36:37.831Z,4.70
2023-04-27T10:39:18.421Z,3.40
2023-04-27T10:41:52.224Z,6.10
2023-04-27T10:44:31.287Z,5.10
2023-04-27T10:47:01.952Z,5.60
2023-04-27T10:49:31.259Z,9.40
2023-04-27T10:51:59.709Z,3.70
2023-04-27T10:54:29.484Z,12.90
2023-04-27T10:57:05.419Z,2.80
2023-04-27T10:59:35.026Z,7.50
2023-04-27T11:02:05.641Z,5.10
2023-04-27T11:05:00.748Z,15.60
2023-04-27T11:07:29.265Z,6.20
2023-04-27T11:09:57.032Z,6.90
2023-04-27T11:12:24.946Z,8.40
2023-04-27T11:15:02.086Z,9.70
2023-04-27T11:17:30.618Z,5.10
2023-04-27T11:19:58.437Z,8.80
2023-04-27T11:22:26.922Z,6.20
2023-04-27T11:24:54.801Z,3.90
2023-04-27T11:27:24.161Z,5.00
2023-04-27T11:29:52.039Z,4.10
2023-04-27T11:32:23.803Z,5.60
2023-04-27T11:34:55.097Z,5.70
2023-04-27T11:37:26.578Z,4.40
2023-04-27T11:39:57.457Z,7.60
2023-04-27T11:42:31.639Z,6.60
2023-04-27T11:45:09.161Z,7.60
2023-04-27T11:47:38.801Z,4.80
2023-04-27T11:50:09.138Z,6.50
2023-04-27T11:52:40.421Z,6.80
2023-04-27T11:55:16.261Z,3.50
2023-04-27T11:57:44.570Z,6.70
2023-04-27T12:00:14.636Z,4.80
2023-04-27T12:02:44.509Z,7.80
2023-04-27T12:05:13.984Z,10.80
2023-04-27T12:07:43.582Z,7.30
2023-04-27T12:10:11.969Z,7.90
2023-04-27T12:12:40.186Z,7.30
2023-04-27T12:15:10.089Z,10.50
2023-04-27T12:17:39.341Z,9.10
2023-04-27T12:20:08.526Z,10.90
2023-04-27T12:22:56.377Z,6.50
2023-04-27T12:25:24.884Z,10.50
2023-04-27T12:27:53.443Z,8.60
2023-04-27T12:30:23.163Z,9.60
2023-04-27T12:32:51.371Z,8.00
2023-04-27T12:35:19.600Z,11.90
2023-04-27T12:37:48.439Z,6.50
2023-04-27T12:40:16.682Z,7.90
2023-04-27T12:42:44.693Z,7.90
2023-04-27T12:45:12.615Z,10.20
2023-04-27T12:47:54.449Z,17.60
2023-04-27T12:50:31.059Z,16.70
2023-04-27T12:53:05.715Z,21.10
2023-04-27T12:55:34.446Z,15.30
2023-04-27T12:58:03.554Z,10.20
2023-04-27T13:00:32.363Z,14.10
2023-04-27T13:03:00.777Z,8.20
2023-04-27T13:10:01.249Z,11.90
2023-04-27T13:12:29.176Z,4.80
2023-04-27T13:16:08.514Z,3.40
2023-04-27T13:22:41.773Z,10.20
2023-04-27T13:26:13.960Z,19.60
2023-04-27T13:28:42.395Z,9.80
2023-04-27T13:31:11.217Z,7.30
2023-04-27T13:33:42.126Z,15.90
2023-04-27T13:36:11.400Z,6.80
2023-04-27T13:41:59.725Z,5.90
2023-04-27T13:44:29.121Z,7.00
2023-04-27T13:47:50.908Z,8.10
2023-04-27T13:50:18.931Z,5.80
2023-04-27T13:52:48.926Z,6.40
2023-04-27T13:55:23.806Z,5.70
2023-04-27T13:57:51.685Z,3.20
2023-04-27T14:00:20.435Z,5.90
2023-04-27T14:02:48.385Z,4.60
2023-04-27T14:05:16.522Z,4.30
2023-04-27T14:07:44.411Z,9.00
2023-04-27T14:10:12.337Z,9.70
2023-04-27T14:12:40.947Z,9.40
2023-04-27T14:15:09.422Z,4.40
2023-04-27T14:17:37.698Z,9.50
2023-04-27T14:20:08.033Z,6.00
2023-04-27T14:22:37.089Z,4.60
2023-04-27T14:25:05.468Z,4.80
2023-04-27T14:27:33.549Z,4.20
2023-04-27T14:30:27.156Z,5.30
2023-04-27T14:32:56.517Z,19.90
2023-04-27T14:35:25.161Z,7.10
2023-04-27T14:43:18.220Z,18.00
2023-04-27T14:45:52.809Z,7.90
2023-04-27T14:48:23.619Z,9.50
2023-04-27T14:50:52.725Z,11.20
2023-04-27T14:53:21.170Z,3.70
2023-04-27T14:55:49.502Z,6.50
2023-04-27T14:58:17.799Z,5.50
2023-04-27T15:00:45.757Z,8.20
2023-04-27T15:03:13.829Z,7.60
2023-04-27T15:05:41.959Z,11.50
2023-04-27T15:08:09.930Z,13.00
2023-04-27T15:10:38.224Z,6.90
2023-04-27T15:13:06.289Z,2.20
2023-04-27T15:15:36.582Z,19.30
2023-04-27T15:18:04.725Z,12.20
2023-04-27T15:20:32.834Z,12.10
2023-04-27T15:23:02.191Z,5.50
2023-04-27T15:25:30.574Z,6.90
2023-04-27T15:27:59.484Z,7.80
2023-04-27T15:30:44.293Z,3.30
2023-04-27T15:33:15.440Z,7.90
2023-04-27T15:35:43.807Z,6.90
2023-04-27T15:38:13.178Z,5.40
2023-04-27T15:41:22.340Z,3.30
2023-04-27T15:43:50.945Z,11.30
2023-04-27T15:46:20.940Z,6.80
2023-04-27T15:48:50.867Z,14.10
2023-04-27T15:51:18.635Z,8.60
2023-04-27T15:53:46.414Z,7.70
2023-04-27T15:56:16.461Z,9.50
2023-04-27T15:58:45.210Z,11.90
2023-04-27T16:01:13.488Z,5.10
2023-04-27T16:03:44.293Z,6.40
2023-04-27T16:06:12.334Z,10.40
2023-04-27T16:08:40.242Z,6.90
2023-04-27T16:11:08.272Z,6.20
2023-04-27T16:13:36.662Z,4.00
2023-04-27T16:16:05.111Z,5.20
2023-04-27T16:18:35.259Z,4.80
2023-04-27T16:21:04.027Z,28.60
2023-04-27T16:23:32.658Z,13.80
2023-04-27T16:26:01.055Z,8.10
2023-04-27T16:28:29.216Z,3.10
2023-04-27T16:30:57.169Z,6.90
2023-04-27T16:33:25.843Z,5.00
2023-04-27T16:35:54.237Z,7.20
2023-04-27T16:38:24.491Z,3.50
2023-04-27T16:44:19.366Z,19.40
2023-04-27T16:46:48.789Z,19.10
2023-04-27T16:49:17.187Z,17.30
2023-04-27T16:51:45.528Z,20.30
2023-04-27T16:54:16.636Z,10.80
2023-04-27T16:56:52.287Z,9.00
2023-04-27T16:59:26.656Z,10.60
2023-04-27T17:01:55.359Z,26.70
2023-04-27T17:04:23.532Z,11.00
2023-04-27T17:06:51.405Z,36.60
2023-04-27T17:09:19.571Z,16.40
2023-04-27T17:11:49.598Z,26.50
2023-04-27T17:14:17.466Z,62.20
2023-04-27T17:16:45.332Z,28.80
2023-04-27T17:19:13.717Z,12.90
2023-04-27T17:21:42.626Z,45.60
2023-04-27T17:24:11.659Z,56.70
2023-04-27T17:26:48.267Z,12.90
2023-04-27T17:29:16.361Z,21.90
2023-04-27T17:31:44.828Z,13.90
2023-04-27T17:34:13.196Z,8.00
2023-04-27T17:36:41.131Z,9.90
2023-04-27T17:39:09.143Z,12.10
2023-04-27T17:41:37.325Z,11.60
2023-04-27T17:44:05.732Z,28.60
2023-04-27T17:46:34.010Z,74.70
2023-04-27T17:49:02.315Z,57.80
2023-04-27T17:51:32.834Z,69.20
2023-04-27T17:54:01.108Z,53.40
2023-04-27T17:56:29.127Z,63.10
2023-04-27T17:58:57.052Z,67.90
2023-04-27T18:01:25.289Z,55.10
2023-04-27T18:03:53.750Z,33.60
2023-04-27T18:06:42.379Z,27.00
2023-04-27T18:09:10.264Z,27.70
2023-04-27T18:11:38.258Z,31.50
2023-04-27T18:14:06.606Z,35.60
2023-04-27T18:16:34.671Z,23.20
2023-04-27T18:19:03.264Z,24.80
2023-04-27T18:21:35.091Z,24.00
2023-04-27T18:24:03.153Z,47.00
2023-04-27T18:26:31.224Z,101.30
2023-04-27T18:28:59.215Z,78.00
2023-04-27T18:31:27.651Z,62.50
2023-04-27T18:33:56.718Z,58.70
2023-04-27T18:36:32.420Z,56.40
2023-04-27T18:39:03.235Z,17.40
2023-04-27T18:41:31.460Z,30.70
2023-04-27T18:44:04.913Z,25.20
2023-04-27T18:46:33.512Z,60.50
2023-04-27T18:49:02.050Z,66.10
2023-04-27T18:51:30.094Z,68.40
2023-04-27T18:53:58.474Z,107.90
2023-04-27T18:56:26.691Z,62.40
2023-04-27T18:58:54.629Z,49.40
2023-04-27T19:01:24.745Z,66.30
2023-04-27T19:03:53.302Z,35.70
2023-04-27T19:06:21.586Z,54.90
2023-04-27T19:09:12.261Z,24.90
2023-04-27T19:11:41.212Z,30.70
2023-04-27T19:14:09.286Z,34.60
2023-04-27T19:16:38.225Z,25.80
2023-04-27T19:19:06.221Z,29.60
2023-04-27T19:21:34.063Z,36.10
2023-04-27T19:24:02.294Z,36.20
2023-04-27T19:26:50.364Z,27.90
2023-04-27T19:29:18.469Z,58.20
2023-04-27T19:31:46.306Z,51.40
2023-04-27T19:34:14.172Z,25.30
2023-04-27T19:36:42.113Z,34.10
2023-04-27T19:39:11.446Z,64.00
2023-04-27T19:41:40.910Z,79.60
2023-04-27T19:44:09.158Z,87.40
2023-04-27T19:46:39.399Z,53.80
2023-04-27T19:49:09.766Z,45.30
2023-04-27T19:51:37.847Z,51.30
2023-04-27T19:54:05.977Z,28.40
2023-04-27T19:56:34.316Z,31.60
2023-04-27T19:59:02.263Z,23.60
2023-04-27T20:01:30.502Z,27.10
2023-04-27T20:03:58.913Z,18.80
2023-04-27T20:06:27.105Z,22.10
2023-04-27T20:08:54.965Z,22.70
2023-04-27T20:11:22.990Z,19.70
2023-04-27T20:13:55.042Z,22.10
2023-04-27T20:16:25.582Z,19.10
2023-04-27T20:18:53.463Z,24.20
2023-04-27T20:21:23.094Z,26.20
2023-04-27T20:23:51.180Z,18.00
2023-04-27T20:26:19.269Z,23.60
2023-04-27T20:28:48.703Z,17.50
2023-04-27T20:31:16.824Z,27.70
2023-04-27T20:33:44.766Z,19.70
2023-04-27T20:36:23.210Z,44.20
2023-04-27T20:38:51.057Z,28.50
2023-04-27T20:41:18.996Z,34.30
2023-04-27T20:43:47.576Z,35.20
2023-04-27T20:46:15.666Z,25.90
2023-04-27T20:48:46.455Z,36.60
2023-04-27T20:51:14.689Z,23.80
2023-04-27T20:53:42.811Z,24.50
2023-04-27T20:56:12.052Z,37.80
2023-04-27T20:58:40.583Z,45.50
2023-04-27T21:01:08.485Z,51.90
2023-04-27T21:03:36.527Z,35.60
2023-04-27T21:06:04.898Z,30.70
2023-04-27T21:08:33.655Z,34.90
2023-04-27T21:11:01.546Z,34.90
2023-04-27T21:13:30.600Z,30.00
2023-04-27T21:15:58.507Z,43.00
2023-04-27T21:18:30.298Z,75.90
2023-04-27T21:20:58.775Z,70.30
2023-04-27T21:24:06.810Z,94.50
2023-04-27T21:26:42.306Z,47.20
2023-04-27T21:29:37.159Z,70.40
2023-04-27T21:34:37.053Z,58.00
2023-04-27T21:37:04.831Z,61.30
2023-04-27T21:39:32.952Z,72.20
2023-04-27T21:42:01.073Z,54.20
2023-04-27T21:44:30.584Z,42.20
2023-04-27T21:46:58.664Z,36.80
2023-04-27T21:49:27.252Z,34.50
2023-04-27T21:51:55.521Z,48.80
2023-04-27T21:54:23.622Z,42.30
2023-04-27T21:56:51.573Z,30.60
2023-04-27T21:59:30.220Z,36.60
2023-04-27T22:02:19.309Z,33.60
2023-04-27T22:04:47.890Z,28.50
2023-04-27T22:07:16.050Z,36.10
2023-04-27T22:09:44.085Z,23.50
2023-04-27T22:12:12.223Z,32.60
2023-04-27T22:14:42.909Z,34.00
2023-04-27T22:17:12.592Z,31.80
2023-04-27T22:19:41.961Z,32.30
2023-04-27T22:22:10.781Z,32.40
2023-04-27T22:24:39.484Z,33.20
2023-04-27T22:27:08.556Z,38.30
2023-04-27T22:29:36.592Z,124.10
2023-04-27T22:32:06.801Z,107.60
2023-04-27T22:34:37.353Z,89.60
2023-04-27T22:37:05.441Z,113.60
2023-04-27T22:39:33.781Z,137.90
2023-04-27T22:42:12.108Z,124.00
2023-04-27T22:44:41.066Z,102.10
2023-04-27T22:47:15.336Z,67.90
2023-04-27T22:49:44.391Z,82.90
2023-04-27T22:52:12.355Z,99.50
2023-04-27T22:54:40.167Z,83.70
2023-04-27T22:57:08.913Z,91.80
2023-04-27T22:59:37.892Z,62.80
2023-04-27T23:02:06.088Z,69.90
2023-04-27T23:04:34.071Z,58.10
2023-04-27T23:07:02.457Z,70.00
2023-04-27T23:09:33.102Z,49.90
2023-04-27T23:12:01.207Z,40.40
2023-04-27T23:14:30.391Z,32.90
2023-04-27T23:16:58.208Z,39.80
2023-04-27T23:19:26.317Z,39.00
2023-04-27T23:21:54.307Z,36.80
2023-04-27T23:24:22.102Z,42.10
2023-04-27T23:26:49.958Z,43.70
2023-04-27T23:29:18.022Z,39.10
2023-04-27T23:34:25.399Z,28.60
2023-04-27T23:36:53.783Z,28.90
2023-04-27T23:39:22.529Z,27.10
2023-04-27T23:41:50.501Z,28.40
2023-04-27T23:44:40.507Z,25.90
2023-04-27T23:47:08.843Z,34.80
2023-04-27T23:49:36.907Z,30.70
2023-04-27T23:52:09.140Z,34.70
2023-04-27T23:54:37.119Z,30.20
2023-04-27T23:57:04.926Z,29.00
2023-04-27T23:59:36.655Z,29.60
